Airfield :
LOGIN :

Register | Disclaimer

   EN    FR    IT 

 










Legend :    VFR   Marginal VFR   IFR   Intensive IFR   Very Intensive IFR
Visi :
Ceiling :
>= 8 km
>= 3000ft
5 to 8 km
1000 to 3000 ft
1500m to 5 km
500 to 1000 ft
800 to 1500m
200 to 500 ft
< 800m
< 200 ft
Symbols :   Thunderstorms  Fog  Heavy snow  Heavy precipitations  Wind > 20 kt
SIGMETs :     Misc.  Thunderstorms  Icing  Turbulence  Mountain Waves  Volcanic Ashes






- Airport Elevation : 74 ft
- IATA code : EIN


EHEH - Eindhoven

CURRENT METAR :
  • 290539Z AUTO 21011KT 180V250 3900 RA FEW007 SCT008 BKN009 15/14 Q1009 GRN TEMPO 2500 RA SHRA FEW004 SCT007 BKN010 SCT025CB

EXPIRED METARs :
  • 290533Z AUTO 21011KT 180V240 9999 +DZ FEW007 SCT008 BKN010 15/14 Q1009 GRN TEMPO 4000 RA SHRA FEW004 SCT007 BKN010 SCT025CB
  • 290455Z AUTO 20011KT 180V240 9999 -DZ FEW007 SCT008 BKN009 15/14 Q1009 REDZ GRN TEMPO 4000 RA SHRA FEW004 SCT007 BKN010 SCT025CB
  • 290438Z AUTO 21010KT 180V240 9999 FEW008 SCT013 BKN016 15/14 Q1009 GRN TEMPO 4000 RA SHRA FEW004 SCT007 BKN010 SCT025CB
  • 290414Z AUTO 21011KT 190V250 9999 FEW006 SCT007 BKN009 15/14 Q1009 GRN
  • 290401Z AUTO 20011KT 160V250 9999 FEW005 SCT007 BKN008 15/14 Q1009 GRN
  • 290355Z AUTO 20011KT 170V230 6000 -DZ FEW005 BKN006 BKN008 15/14 Q1009 REDZ YLO
  • 290343Z AUTO 20010KT 170V230 5000 +DZ FEW005 SCT006 BKN007 14/14 Q1009 YLO
  • 290335Z AUTO 20010KT 3000 -RA SCT005 BKN007 BKN008 15/14 Q1009 YLO
  • 290303Z AUTO 20010KT 170V230 3400 -RA FEW005 BKN007 OVC008 15/14 Q1010 YLO
  • 290259Z AUTO 20009KT 150V230 7000 -SHRA SCT005 BKN007 OVC008 15/14 Q1010 YLO
  • 290255Z AUTO 20008KT 150V230 5000 SHRA FEW005 BKN007 BKN008 15/14 Q1010 GRN
  • 290244Z AUTO 21009KT 180V240 5000 SHRA FEW006 BKN008 BKN009 15/14 Q1010 GRN
  • 290225Z AUTO 20011KT 170V230 5000 +RA FEW005 SCT006 BKN008 SCT015CB 15/14 Q1010 RERA REDZ YLO
  • 290155Z AUTO 20011KT 150V230 5000 +DZ FEW008 SCT010 BKN014 15/14 Q1010 GRN
  • 290144Z AUTO 19010KT 160V230 4900 +DZ FEW007 BKN011 BKN014 15/14 Q1010 GRN
  • 290125Z AUTO 19010KT 170V230 9999 -RADZ FEW007 SCT011 BKN013 15/14 Q1011 GRN
  • 290055Z AUTO 19008KT 160V220 9999 FEW004 SCT008 BKN010 15/14 Q1011 REDZ GRN
  • 290051Z AUTO 19008KT 9999 FEW007 SCT008 OVC010 15/14 Q1011 GRN

TAF TAF EHEH
Valid from the 29 at 00:00 until the 30 at 06:00 UTC


282308Z 2900/3006 20010KT 9999 FEW008 SCT012 BKN015
TEMPO 2900/2906 3000 RA SHRA FEW004 SCT008 BKN012 SCT025CB
BECMG 2906/2908 24010KT FEW015 SCT020
TEMPO 2908/2920 26015G25KT 4500 SHRA SCT015 SCT025CB
PROB30
TEMPO 2911/2919 2500 TSRAGR SCT015 SCT020CB
PROB40 3002/3006 SCT008 BKN010



MET'MAP, your aeronautical weather chart ! - Copyright ORBIFLY December 2007 - Disclaimer

ORBIFLY MET'MAP TEAM :

Programming & Development : Alexandra Zaïnal
Original concept : Baudouin d'Aumeries
Technical & hardware support : Manuel Goepfert
Assistance : Marc-Olivier Méhu




SOURCES & CREDITS :

   NOAA